Time;durP1;ratioP1;P1;durP2;ratioP2;P2;SDS_P1;SDS_P2;PMS_P1;PMS_P2;Temp;Humidity;BMP_temperature;BMP_pressure;BME280_temperature;BME280_humidity;BME280_pressure;Samples;Min_cycle;Max_cycle;Signal;HPM_P1;HPM_P2
2022/10/01 00:00:25;;;;;;;29.23;20.57;;;;;;;11.54;88.43;100511.20;1724854;82;25773;-80
2022/10/01 00:02:54;;;;;;;24.87;20.23;;;;;;;11.53;88.53;100509.52;1731015;81;25770;-80
2022/10/01 00:05:20;;;;;;;28.62;20.17;;;;;;;11.52;88.52;100506.54;1723523;81;25837;-81
2022/10/01 00:07:47;;;;;;;33.45;21.65;;;;;;;11.52;88.55;100507.05;1728654;81;25805;-81
2022/10/01 00:10:14;;;;;;;29.27;20.70;;;;;;;11.49;88.57;100505.58;1718104;81;27448;-80
2022/10/01 00:12:47;;;;;;;39.25;22.45;;;;;;;11.49;88.61;100500.21;1693872;82;25795;-80
2022/10/01 00:15:15;;;;;;;27.70;20.52;;;;;;;11.49;88.60;100498.03;1665458;85;25850;-80
2022/10/01 00:17:42;;;;;;;26.55;20.00;;;;;;;11.47;88.50;100502.26;1731774;81;25844;-81
2022/10/01 00:20:12;;;;;;;28.92;20.92;;;;;;;11.45;88.46;100498.11;1693828;82;25868;-80
2022/10/01 00:22:39;;;;;;;25.70;19.40;;;;;;;11.44;88.49;100497.80;1697567;82;27618;-80
2022/10/01 00:25:06;;;;;;;28.83;20.02;;;;;;;11.44;88.39;100491.91;1683648;83;25928;-80
2022/10/01 00:27:32;;;;;;;28.00;20.23;;;;;;;11.44;88.42;100495.13;1687757;83;26160;-80
2022/10/01 00:29:58;;;;;;;39.50;24.05;;;;;;;11.44;88.43;100496.47;1686038;83;25916;-80
2022/10/01 00:32:25;;;;;;;33.38;23.85;;;;;;;11.44;88.61;100501.83;1681253;84;25952;-80
2022/10/01 00:34:52;;;;;;;30.45;21.68;;;;;;;11.42;88.68;100496.64;1678444;83;27517;-80
2022/10/01 00:37:21;;;;;;;31.97;22.27;;;;;;;11.43;88.76;100499.66;1681360;83;25856;-81
2022/10/01 00:39:47;;;;;;;31.50;22.27;;;;;;;11.42;88.78;100505.19;1681985;83;25829;-80
2022/10/01 00:42:20;;;;;;;30.35;21.70;;;;;;;11.42;88.89;100507.87;1671840;84;25912;-80
2022/10/01 00:44:48;;;;;;;31.75;22.75;;;;;;;11.43;88.95;100506.86;1685834;83;25935;-80
2022/10/01 00:47:31;;;;;;;29.35;20.48;;;;;;;11.43;88.96;100495.63;1694773;82;28304;-81
2022/10/01 00:50:21;;;;;;;30.23;21.60;;;;;;;11.43;88.91;100494.80;1692666;82;25835;-80
2022/10/01 00:52:54;;;;;;;32.03;23.83;;;;;;;11.41;88.88;100485.61;1691748;82;25951;-81
2022/10/01 00:55:29;;;;;;;30.52;22.40;;;;;;;11.39;88.82;100496.21;1700396;82;26540;-80
2022/10/01 00:57:56;;;;;;;32.13;21.90;;;;;;;11.36;88.80;100496.08;1665160;84;26482;-80
2022/10/01 01:00:24;;;;;;;31.48;22.37;;;;;;;11.35;88.85;100500.30;1655669;85;27467;-80
2022/10/01 01:02:50;;;;;;;33.98;24.18;;;;;;;11.34;88.80;100498.13;1675225;83;26471;-80
2022/10/01 01:05:17;;;;;;;32.40;22.37;;;;;;;11.34;88.82;100500.81;1698022;82;25775;-80
2022/10/01 01:07:48;;;;;;;35.40;26.05;;;;;;;11.33;88.80;100506.38;1731248;81;25844;-80
2022/10/01 01:10:20;;;;;;;36.28;24.92;;;;;;;11.30;88.90;100508.93;1734917;81;26655;-81
2022/10/01 01:13:01;;;;;;;33.58;24.27;;;;;;;11.30;89.05;100502.73;1734637;81;27424;-81
2022/10/01 01:15:51;;;;;;;33.18;24.02;;;;;;;11.31;89.08;100508.42;1724446;81;25907;-81
2022/10/01 01:18:29;;;;;;;32.48;23.92;;;;;;;11.30;89.10;100502.73;1690961;82;25925;-81
2022/10/01 01:21:25;;;;;;;34.50;23.73;;;;;;;11.29;89.11;100505.11;1720817;82;25891;-81
2022/10/01 01:24:09;;;;;;;34.55;24.40;;;;;;;11.27;89.20;100507.16;1728037;81;26444;-81
2022/10/01 01:27:15;;;;;;;46.77;30.02;;;;;;;11.27;89.21;100505.28;1725863;81;27467;-81
2022/10/01 01:30:05;;;;;;;105.32;53.98;;;;;;;11.28;89.20;100499.41;1675308;83;25381;-81
2022/10/01 01:32:51;;;;;;;79.47;48.45;;;;;;;11.28;89.28;100493.55;1677609;84;25880;-81
2022/10/01 01:35:31;;;;;;;51.00;36.73;;;;;;;11.27;89.20;100486.52;1678544;83;25863;-82
2022/10/01 01:38:02;;;;;;;47.73;33.85;;;;;;;11.27;89.15;100497.77;1673760;84;25814;-80
2022/10/01 01:40:31;;;;;;;49.03;30.72;;;;;;;11.25;89.14;100507.33;1680141;84;27449;-81
2022/10/01 01:42:59;;;;;;;44.25;31.15;;;;;;;11.23;89.12;100513.90;1666006;83;25878;-81
2022/10/01 01:45:29;;;;;;;39.70;28.57;;;;;;;11.22;89.23;100515.77;1673307;84;25791;-81
2022/10/01 01:47:59;;;;;;;37.08;25.75;;;;;;;11.20;89.32;100520.50;1673164;83;26503;-81
2022/10/01 01:50:30;;;;;;;42.83;27.37;;;;;;;11.20;89.32;100526.37;1685758;82;25860;-81
2022/10/01 01:52:58;;;;;;;38.73;27.65;;;;;;;11.19;89.31;100526.88;1694055;82;27454;-81
2022/10/01 01:55:28;;;;;;;39.92;27.15;;;;;;;11.18;89.21;100526.57;1672592;83;25866;-81
2022/10/01 01:57:56;;;;;;;39.75;25.75;;;;;;;11.17;89.17;100532.94;1670913;85;25800;-81
2022/10/01 02:00:23;;;;;;;38.80;26.80;;;;;;;11.19;89.20;100528.72;1673659;84;26538;-80
2022/10/01 02:02:53;;;;;;;31.82;25.10;;;;;;;11.19;89.18;100535.42;1685067;82;25901;-81
2022/10/01 02:05:27;;;;;;;33.98;25.95;;;;;;;11.20;89.24;100537.09;1734579;81;27499;-81
2022/10/01 02:08:17;;;;;;;33.95;24.72;;;;;;;11.17;89.21;100536.13;1717550;81;26005;-81
2022/10/01 02:11:21;;;;;;;32.98;23.07;;;;;;;11.13;89.15;100532.17;1659741;84;26114;-81
2022/10/01 02:14:08;;;;;;;28.17;20.57;;;;;;;11.13;89.22;100529.48;1727562;81;25844;-81
2022/10/01 02:17:00;;;;;;;26.87;19.40;;;;;;;11.10;89.11;100518.63;1717705;81;25596;-81
2022/10/01 02:19:32;;;;;;;29.12;21.40;;;;;;;11.09;89.02;100521.52;1733763;81;27466;-81
2022/10/01 02:22:12;;;;;;;27.50;20.30;;;;;;;11.08;89.00;100518.50;1735523;81;25341;-80
2022/10/01 02:24:57;;;;;;;32.58;21.80;;;;;;;11.06;89.04;100520.04;1698124;81;26339;-81
2022/10/01 02:27:32;;;;;;;33.20;20.92;;;;;;;11.05;89.05;100502.31;1701819;82;26578;-81
2022/10/01 02:30:04;;;;;;;29.75;22.20;;;;;;;11.05;88.94;100498.80;1699698;82;26466;-81
2022/10/01 02:32:31;;;;;;;31.02;21.82;;;;;;;11.04;88.88;100497.97;1698950;82;27571;-81
2022/10/01 02:34:58;;;;;;;30.55;21.90;;;;;;;11.02;88.81;100488.45;1696075;82;25776;-82
2022/10/01 02:37:26;;;;;;;34.25;22.80;;;;;;;11.01;88.90;100486.30;1676496;83;26092;-82
2022/10/01 02:39:56;;;;;;;38.33;26.60;;;;;;;10.99;88.99;100468.22;1689970;82;25849;-82
2022/10/01 02:42:26;;;;;;;35.65;26.65;;;;;;;10.98;89.12;100459.88;1680842;83;25914;-82
2022/10/01 02:44:56;;;;;;;43.02;29.55;;;;;;;10.96;89.15;100450.36;1675219;82;27547;-82
2022/10/01 02:47:33;;;;;;;40.55;28.38;;;;;;;10.96;89.24;100436.96;1698375;82;26440;-81
2022/10/01 02:50:03;;;;;;;38.38;28.12;;;;;;;10.96;89.29;100431.60;1665831;85;25580;-82
2022/10/01 02:52:38;;;;;;;41.53;27.87;;;;;;;10.97;89.29;100442.12;1670957;84;25806;-81
2022/10/01 02:55:10;;;;;;;42.48;27.37;;;;;;;10.95;89.26;100435.32;1661011;83;25743;-81
2022/10/01 02:57:37;;;;;;;43.73;30.82;;;;;;;10.95;89.24;100440.14;1664981;84;27474;-81
2022/10/01 03:00:11;;;;;;;45.23;29.82;;;;;;;10.93;89.40;100441.39;1673621;83;26455;-81
2022/10/01 03:02:37;;;;;;;44.20;29.30;;;;;;;10.89;89.55;100454.32;1680316;83;25365;-82
2022/10/01 03:05:05;;;;;;;42.60;30.10;;;;;;;10.86;89.72;100459.55;1688080;83;25929;-81
2022/10/01 03:07:34;;;;;;;43.55;29.30;;;;;;;10.85;89.81;100467.79;1686164;83;26700;-81
2022/10/01 03:10:03;;;;;;;40.65;30.95;;;;;;;10.82;89.86;100473.52;1693853;83;27457;-81
2022/10/01 03:12:30;;;;;;;45.05;31.42;;;;;;;10.81;89.95;100467.35;1688854;83;25772;-81
2022/10/01 03:14:56;;;;;;;45.33;32.75;;;;;;;10.81;89.97;100478.57;1707187;82;25857;-81
2022/10/01 03:17:23;;;;;;;42.85;30.55;;;;;;;10.81;90.01;100478.57;1702399;82;26571;-81
2022/10/01 03:19:50;;;;;;;39.38;29.85;;;;;;;10.81;89.84;100481.25;1700905;82;25651;-81
2022/10/01 03:22:22;;;;;;;39.45;29.12;;;;;;;10.80;89.64;100484.94;1703069;82;27612;-81
2022/10/01 03:24:51;;;;;;;40.65;27.27;;;;;;;10.79;89.61;100488.16;1715360;82;25807;-81
2022/10/01 03:27:19;;;;;;;38.40;28.32;;;;;;;10.77;89.47;100482.66;1722419;82;25554;-81
2022/10/01 03:29:46;;;;;;;52.70;36.45;;;;;;;10.74;89.18;100487.87;1706706;82;25754;-81
2022/10/01 03:32:13;;;;;;;45.08;32.45;;;;;;;10.71;88.92;100491.46;1700018;82;26089;-81
2022/10/01 03:34:39;;;;;;;40.10;30.27;;;;;;;10.68;88.69;100485.97;1701176;82;27464;-82
2022/10/01 03:37:06;;;;;;;34.98;23.95;;;;;;;10.67;88.36;100482.15;1699683;82;25810;-81
2022/10/01 03:39:33;;;;;;;32.35;24.82;;;;;;;10.60;87.89;100474.55;1692027;82;26353;-81
2022/10/01 03:41:59;;;;;;;37.17;27.07;;;;;;;10.55;87.54;100477.78;1703307;82;26472;-82
2022/10/01 03:44:27;;;;;;;37.15;26.17;;;;;;;10.49;87.45;100481.22;1687360;83;25807;-81
2022/10/01 03:46:53;;;;;;;35.05;25.15;;;;;;;10.45;87.19;100484.47;1684829;83;28296;-82
2022/10/01 03:49:20;;;;;;;36.13;24.87;;;;;;;10.40;87.19;100478.33;1697948;82;25843;-81
2022/10/01 03:51:46;;;;;;;39.10;26.85;;;;;;;10.36;87.20;100478.39;1729916;81;25806;-81
2022/10/01 03:54:13;;;;;;;37.15;26.55;;;;;;;10.33;86.96;100481.97;1731297;81;25759;-81
2022/10/01 03:56:41;;;;;;;36.40;24.92;;;;;;;10.27;86.68;100482.19;1692812;82;25959;-81
2022/10/01 03:59:09;;;;;;;38.83;24.72;;;;;;;10.24;86.73;100478.56;1705720;82;28236;-81
2022/10/01 04:01:37;;;;;;;30.30;23.40;;;;;;;10.19;86.60;100486.31;1692603;83;26518;-81
2022/10/01 04:04:05;;;;;;;33.15;24.60;;;;;;;10.13;86.34;100486.23;1680941;83;25959;-81
2022/10/01 04:06:32;;;;;;;37.98;25.92;;;;;;;10.08;86.18;100484.08;1694832;82;25968;-81
2022/10/01 04:08:58;;;;;;;35.10;24.12;;;;;;;10.03;86.15;100484.63;1689070;82;25800;-81
2022/10/01 04:11:25;;;;;;;35.55;25.55;;;;;;;10.00;86.09;100481.51;1680146;83;27595;-82
2022/10/01 04:13:51;;;;;;;38.55;25.80;;;;;;;9.96;85.94;100472.20;1679285;83;25344;-82
2022/10/01 04:16:18;;;;;;;36.83;26.57;;;;;;;9.92;85.81;100469.58;1680522;83;25483;-81
2022/10/01 04:18:44;;;;;;;35.92;24.02;;;;;;;9.87;85.89;100470.13;1681696;83;25762;-81
2022/10/01 04:21:11;;;;;;;32.17;23.80;;;;;;;9.82;85.86;100471.18;1681298;83;26169;-81
2022/10/01 04:23:37;;;;;;;27.98;21.80;;;;;;;9.78;85.80;100466.38;1680675;83;27463;-81
2022/10/01 04:26:04;;;;;;;27.85;21.48;;;;;;;9.75;85.61;100458.74;1705780;82;26588;-81
2022/10/01 04:28:31;;;;;;;26.80;20.27;;;;;;;9.67;85.45;100460.98;1677290;84;26165;-82
2022/10/01 04:33:43;;;;;;;24.15;19.15;;;;;;;9.59;85.37;100464.25;1697072;82;26013;-81
2022/10/01 04:36:10;;;;;;;26.42;19.90;;;;;;;9.55;85.37;100462.96;1731315;81;27428;-82
2022/10/01 04:38:37;;;;;;;33.98;19.60;;;;;;;9.49;85.35;100451.17;1731691;81;25338;-81
2022/10/01 04:41:03;;;;;;;24.72;17.55;;;;;;;9.45;85.33;100457.90;1733866;81;26576;-81
2022/10/01 04:43:30;;;;;;;26.95;19.17;;;;;;;9.39;85.05;100457.27;1672547;84;25997;-82
2022/10/01 04:45:56;;;;;;;25.27;18.07;;;;;;;9.30;85.01;100465.88;1730348;81;25923;-81
2022/10/01 04:48:23;;;;;;;52.45;19.27;;;;;;;9.27;85.17;100462.74;1729805;81;27459;-82
2022/10/01 04:50:49;;;;;;;25.12;18.42;;;;;;;9.25;85.10;100459.42;1731322;81;25755;-82
2022/10/01 04:53:15;;;;;;;24.98;18.15;;;;;;;9.19;84.88;100460.16;1725297;81;26463;-81
2022/10/01 04:55:42;;;;;;;23.85;16.82;;;;;;;9.13;84.96;100465.70;1730152;81;26523;-82
2022/10/01 04:58:09;;;;;;;24.47;16.93;;;;;;;9.11;84.92;100461.57;1735671;81;26362;-82
2022/10/01 05:00:35;;;;;;;22.67;17.00;;;;;;;9.07;84.90;100461.08;1731051;81;27458;-81
2022/10/01 05:03:02;;;;;;;25.23;17.17;;;;;;;9.04;84.78;100471.31;1732556;81;26049;-81
2022/10/01 05:05:31;;;;;;;20.60;15.53;;;;;;;9.03;84.82;100473.64;1727176;81;25806;-81
2022/10/01 05:07:56;;;;;;;24.67;17.05;;;;;;;9.01;84.62;100475.16;1731648;81;25868;-81
2022/10/01 05:10:23;;;;;;;23.83;16.77;;;;;;;8.97;84.67;100473.03;1721815;81;25829;-82
2022/10/01 05:12:50;;;;;;;22.40;17.32;;;;;;;8.94;84.82;100475.55;1683722;82;27476;-81
2022/10/01 05:15:18;;;;;;;22.58;15.88;;;;;;;8.91;84.89;100477.26;1702937;82;26446;-81
2022/10/01 05:17:46;;;;;;;20.10;15.85;;;;;;;8.91;84.98;100473.75;1732581;81;25998;-81
2022/10/01 05:20:19;;;;;;;17.10;14.45;;;;;;;8.90;85.14;100474.74;1693301;82;25951;-81
2022/10/01 05:22:48;;;;;;;20.08;16.32;;;;;;;8.88;85.31;100470.09;1698627;82;25846;-81
2022/10/01 05:25:15;;;;;;;20.17;15.58;;;;;;;8.86;85.41;100467.60;1698797;83;27474;-80
2022/10/01 05:27:42;;;;;;;18.52;13.68;;;;;;;8.87;85.61;100475.13;1697591;82;25563;-80
2022/10/01 05:30:11;;;;;;;18.55;15.32;;;;;;;8.87;85.65;100478.63;1704234;82;26466;-80
2022/10/01 05:32:38;;;;;;;19.80;16.05;;;;;;;8.87;85.82;100468.44;1692431;82;25796;-80
2022/10/01 05:35:07;;;;;;;24.98;16.12;;;;;;;8.87;86.02;100470.61;1696057;82;26017;-80
2022/10/01 05:37:34;;;;;;;31.75;15.68;;;;;;;8.88;86.19;100473.59;1676813;84;27437;-79
2022/10/01 05:40:01;;;;;;;25.25;14.85;;;;;;;8.88;86.18;100475.42;1675939;83;26208;-80
2022/10/01 05:42:28;;;;;;;17.73;15.60;;;;;;;8.85;86.29;100479.31;1693600;82;25817;-80
2022/10/01 05:44:54;;;;;;;25.15;16.73;;;;;;;8.84;86.54;100476.30;1690880;82;25863;-81
2022/10/01 05:47:21;;;;;;;21.35;16.87;;;;;;;8.86;86.80;100476.95;1697595;82;26600;-81
2022/10/01 05:49:47;;;;;;;20.80;15.88;;;;;;;8.90;87.01;100473.41;1688167;82;28168;-80
2022/10/01 05:52:15;;;;;;;24.52;18.42;;;;;;;8.93;87.11;100474.40;1675359;83;25862;-80
2022/10/01 05:54:41;;;;;;;27.17;17.55;;;;;;;8.96;87.22;100477.53;1674092;83;25793;-80
2022/10/01 05:57:08;;;;;;;22.67;18.05;;;;;;;9.00;87.29;100468.14;1662968;84;25921;-79
2022/10/01 05:59:35;;;;;;;23.50;18.12;;;;;;;9.04;87.40;100468.14;1671768;83;25912;-81
2022/10/01 06:02:02;;;;;;;26.50;19.30;;;;;;;9.09;87.50;100458.22;1686159;82;28281;-83
2022/10/01 06:04:29;;;;;;;28.27;18.42;;;;;;;9.14;87.78;100455.34;1733036;82;26201;-88
2022/10/01 06:06:56;;;;;;;34.05;24.70;;;;;;;9.19;87.98;100449.47;1697366;82;25877;-87
2022/10/01 06:09:22;;;;;;;31.30;24.37;;;;;;;9.21;87.99;100450.11;1694296;82;25832;-80
2022/10/01 06:11:49;;;;;;;31.00;22.60;;;;;;;9.25;88.11;100455.41;1669378;85;25895;-83
2022/10/01 06:14:16;;;;;;;29.55;22.42;;;;;;;9.29;88.23;100446.02;1720579;82;27625;-81
2022/10/01 06:16:42;;;;;;;31.82;23.62;;;;;;;9.34;88.55;100442.30;1699721;82;26509;-80
2022/10/01 06:19:09;;;;;;;28.52;22.25;;;;;;;9.39;88.83;100442.56;1659728;84;25775;-80
2022/10/01 06:21:35;;;;;;;31.55;23.73;;;;;;;9.46;89.02;100439.98;1686337;82;25823;-80
2022/10/01 06:24:01;;;;;;;28.15;23.10;;;;;;;9.51;89.17;100438.95;1732484;81;25883;-81
2022/10/01 06:26:28;;;;;;;32.35;24.87;;;;;;;9.59;89.54;100434.84;1697828;82;27599;-81
2022/10/01 06:28:54;;;;;;;31.10;24.45;;;;;;;9.65;89.81;100438.11;1687208;83;25814;-81
2022/10/01 06:31:20;;;;;;;30.90;24.15;;;;;;;9.72;89.93;100437.20;1689230;83;25799;-81
2022/10/01 06:33:47;;;;;;;29.40;24.32;;;;;;;9.81;90.36;100436.59;1684379;83;25770;-81
2022/10/01 06:36:13;;;;;;;35.65;24.95;;;;;;;9.89;90.51;100429.30;1680178;84;25876;-80
2022/10/01 06:38:40;;;;;;;35.05;27.37;;;;;;;9.97;90.52;100431.03;1671431;84;27678;-83
2022/10/01 06:41:06;;;;;;;38.13;27.25;;;;;;;10.03;90.72;100427.09;1672507;84;25723;-80
2022/10/01 06:43:33;;;;;;;38.30;28.15;;;;;;;10.09;90.92;100425.00;1663272;85;25712;-80
2022/10/01 06:46:04;;;;;;;39.63;30.30;;;;;;;10.16;91.21;100425.12;1656336;83;26211;-80
2022/10/01 06:48:31;;;;;;;39.73;27.50;;;;;;;10.24;91.33;100427.70;1680159;83;26496;-82
2022/10/01 06:50:58;;;;;;;37.03;29.02;;;;;;;10.32;91.45;100431.60;1679763;83;28329;-82
2022/10/01 06:53:27;;;;;;;38.13;29.95;;;;;;;10.39;91.72;100433.81;1735319;81;25598;-81
2022/10/01 06:55:54;;;;;;;39.67;29.55;;;;;;;10.44;91.91;100434.09;1699625;82;25768;-81
2022/10/01 06:58:25;;;;;;;38.30;28.85;;;;;;;10.50;92.14;100432.52;1676272;83;25925;-81
2022/10/01 07:00:58;;;;;;;38.83;27.62;;;;;;;10.55;92.21;100431.42;1666360;85;25766;-81
2022/10/01 07:03:25;;;;;;;37.48;28.00;;;;;;;10.61;92.32;100424.80;1733364;81;27479;-81
2022/10/01 07:05:51;;;;;;;38.17;27.30;;;;;;;10.71;92.51;100424.48;1695449;82;25754;-81
2022/10/01 07:08:18;;;;;;;36.15;26.20;;;;;;;10.77;92.54;100421.88;1689795;82;25733;-82
2022/10/01 07:10:44;;;;;;;33.18;25.77;;;;;;;10.87;92.58;100424.21;1693753;82;26084;-80
2022/10/01 07:13:19;;;;;;;32.55;26.57;;;;;;;10.95;92.66;100425.94;1684113;82;25850;-81
2022/10/01 07:15:46;;;;;;;33.98;26.57;;;;;;;11.04;92.74;100424.75;1694222;82;27516;-80
2022/10/01 07:18:12;;;;;;;32.73;26.05;;;;;;;11.12;92.51;100426.78;1696180;82;25822;-80
2022/10/01 07:20:40;;;;;;;32.65;24.67;;;;;;;11.21;92.43;100427.47;1671418;84;25800;-79
2022/10/01 07:23:12;;;;;;;33.15;25.35;;;;;;;11.28;92.42;100429.20;1685321;82;26569;-80
2022/10/01 07:25:40;;;;;;;33.38;23.98;;;;;;;11.36;92.28;100430.37;1714929;81;25297;-80
2022/10/01 07:28:16;;;;;;;32.25;22.82;;;;;;;11.44;92.05;100433.44;1724781;81;27522;-81
2022/10/01 07:30:57;;;;;;;28.40;22.52;;;;;;;11.52;92.04;100431.43;1675026;84;26531;-81
2022/10/01 07:33:23;;;;;;;28.20;20.12;;;;;;;11.59;91.78;100430.10;1702881;82;25768;-81
2022/10/01 07:35:49;;;;;;;26.10;20.92;;;;;;;11.67;91.33;100433.19;1699377;81;25734;-82
2022/10/01 07:38:15;;;;;;;27.95;20.32;;;;;;;11.74;91.50;100437.55;1679990;83;25800;-81
2022/10/01 07:40:42;;;;;;;31.30;21.52;;;;;;;11.83;91.58;100441.73;1701186;82;27500;-81
2022/10/01 07:43:09;;;;;;;22.17;16.77;;;;;;;11.92;91.51;100448.60;1736241;81;25745;-80
2022/10/01 07:45:35;;;;;;;27.95;19.27;;;;;;;12.00;91.09;100444.41;1700090;82;26159;-81
2022/10/01 07:48:03;;;;;;;27.58;18.50;;;;;;;12.07;90.66;100445.77;1734372;81;25864;-81
2022/10/01 07:50:29;;;;;;;25.17;19.82;;;;;;;12.14;90.84;100446.64;1671038;84;25836;-81
2022/10/01 07:52:58;;;;;;;25.08;19.73;;;;;;;12.22;90.84;100439.74;1678469;83;27563;-80
2022/10/01 07:55:27;;;;;;;30.00;19.80;;;;;;;12.27;90.64;100436.75;1671858;83;25953;-81
2022/10/01 07:57:56;;;;;;;26.87;19.98;;;;;;;12.35;90.54;100429.88;1698462;82;25310;-81
2022/10/01 08:00:26;;;;;;;26.17;19.17;;;;;;;12.45;90.62;100428.64;1706955;82;25863;-80
2022/10/01 08:02:54;;;;;;;26.97;19.02;;;;;;;12.54;90.71;100424.75;1691637;83;26080;-81
2022/10/01 08:05:25;;;;;;;24.10;18.05;;;;;;;12.64;90.51;100428.70;1696595;82;28286;-81
2022/10/01 08:07:51;;;;;;;24.87;18.87;;;;;;;12.71;90.01;100431.39;1676622;84;25309;-80
2022/10/01 08:10:21;;;;;;;31.07;21.52;;;;;;;12.75;89.62;100432.12;1666461;84;25914;-81
2022/10/01 08:12:48;;;;;;;29.87;22.98;;;;;;;12.82;89.42;100428.94;1669310;84;26576;-81
2022/10/01 08:15:16;;;;;;;32.05;22.87;;;;;;;12.88;89.23;100429.46;1653270;84;25814;-80
2022/10/01 08:17:43;;;;;;;26.90;20.85;;;;;;;12.89;88.97;100419.55;1697379;82;27503;-81
2022/10/01 08:20:13;;;;;;;31.45;22.90;;;;;;;12.90;88.71;100422.02;1666582;84;26055;-81
2022/10/01 08:22:40;;;;;;;30.77;22.37;;;;;;;12.94;88.75;100415.70;1668044;84;25814;-81
2022/10/01 08:25:07;;;;;;;30.08;22.22;;;;;;;13.02;89.14;100413.63;1677761;84;25769;-81
2022/10/01 08:27:33;;;;;;;27.55;21.07;;;;;;;13.04;88.83;100410.76;1706416;82;25913;-81
2022/10/01 08:30:00;;;;;;;28.23;21.12;;;;;;;13.03;88.77;100408.58;1708179;82;27481;-81
2022/10/01 08:32:27;;;;;;;28.70;19.75;;;;;;;13.04;88.48;100403.52;1732495;81;26456;-81
2022/10/01 08:34:58;;;;;;;24.18;18.90;;;;;;;13.08;88.46;100406.65;1725280;81;25781;-81
2022/10/01 08:37:28;;;;;;;19.95;15.45;;;;;;;13.13;88.38;100406.83;1726884;81;26526;-81
2022/10/01 08:39:56;;;;;;;22.52;16.48;;;;;;;13.19;88.54;100395.78;1731237;81;25927;-79
2022/10/01 08:42:34;;;;;;;20.50;15.00;;;;;;;13.19;87.91;100394.44;1735889;81;27666;-85
2022/10/01 08:45:05;;;;;;;14.93;11.10;;;;;;;13.25;87.92;100383.67;1722193;81;25821;-77
2022/10/01 08:47:43;;;;;;;17.55;14.28;;;;;;;13.30;87.74;100381.16;1732254;81;26347;-78
2022/10/01 08:50:23;;;;;;;17.02;13.55;;;;;;;13.29;87.14;100375.48;1676016;83;25830;-86
2022/10/01 08:52:55;;;;;;;14.30;12.05;;;;;;;13.29;87.06;100374.14;1675225;83;25801;-85
2022/10/01 08:55:25;;;;;;;17.12;13.03;;;;;;;13.35;87.49;100378.67;1690790;82;27519;-85
2022/10/01 08:58:02;;;;;;;18.62;12.45;;;;;;;13.47;87.73;100376.18;1702099;82;26098;-83
2022/10/01 09:00:31;;;;;;;15.18;11.18;;;;;;;13.55;87.64;100376.78;1694238;82;25771;-86
2022/10/01 09:03:02;;;;;;;16.05;13.08;;;;;;;13.58;86.93;100373.65;1674396;83;25784;-86
2022/10/01 09:05:43;;;;;;;14.13;11.85;;;;;;;13.59;86.72;100373.97;1693425;82;25822;-87
2022/10/01 09:08:58;;;;;;;14.23;11.30;;;;;;;13.66;86.76;100368.56;1675833;83;27929;-89
2022/10/01 09:11:47;;;;;;;11.90;9.85;;;;;;;13.73;86.70;100367.49;1682262;82;25749;-89
2022/10/01 09:14:46;;;;;;;10.98;8.70;;;;;;;13.85;86.58;100378.44;1700713;82;25781;-85
2022/10/01 09:17:45;;;;;;;13.88;9.95;;;;;;;13.91;86.37;100364.95;1668494;84;26354;-85
2022/10/01 09:20:35;;;;;;;10.55;8.28;;;;;;;13.94;85.77;100371.78;1677220;84;25977;-85
2022/10/01 09:23:22;;;;;;;11.03;8.55;;;;;;;13.96;85.64;100364.31;1697019;82;28025;-85
2022/10/01 09:25:49;;;;;;;12.18;8.25;;;;;;;14.00;85.68;100362.00;1692138;82;25816;-85
2022/10/01 09:28:20;;;;;;;9.65;7.15;;;;;;;14.02;85.48;100358.06;1701648;82;25968;-85
2022/10/01 09:31:19;;;;;;;8.83;7.08;;;;;;;14.05;85.07;100353.58;1701439;81;25786;-85
2022/10/01 09:33:59;;;;;;;9.40;8.40;;;;;;;14.04;84.51;100352.45;1692776;82;25843;-86
2022/10/01 09:36:37;;;;;;;14.30;10.00;;;;;;;14.04;84.40;100348.41;1690334;82;27562;-86
2022/10/01 09:39:21;;;;;;;13.35;10.08;;;;;;;14.07;84.40;100349.34;1674738;83;25827;-85
2022/10/01 09:41:47;;;;;;;12.80;9.23;;;;;;;14.07;84.12;100350.69;1668954;85;25842;-85
2022/10/01 09:44:21;;;;;;;11.53;8.53;;;;;;;14.11;83.52;100350.05;1689472;82;26518;-84
2022/10/01 09:46:48;;;;;;;15.10;11.08;;;;;;;14.12;83.37;100347.64;1671656;83;25913;-85
2022/10/01 09:49:41;;;;;;;12.78;9.10;;;;;;;14.14;83.43;100347.41;1689152;82;27527;-84
2022/10/01 09:52:33;;;;;;;14.05;8.70;;;;;;;14.22;83.62;100345.84;1707569;83;25760;-86
2022/10/01 09:55:20;;;;;;;13.85;9.23;;;;;;;14.23;83.00;100347.47;1718591;81;25795;-85
2022/10/01 09:58:11;;;;;;;9.40;7.95;;;;;;;14.26;82.90;100340.31;1719101;82;25864;-84
2022/10/01 10:00:39;;;;;;;10.80;8.20;;;;;;;14.25;82.69;100339.48;1720883;81;25954;-84
2022/10/01 10:03:06;;;;;;;11.53;7.62;;;;;;;14.30;82.57;100329.44;1735151;81;28267;-85
2022/10/01 10:05:48;;;;;;;10.98;7.50;;;;;;;14.37;82.36;100323.50;1734720;81;25953;-85
2022/10/01 10:08:33;;;;;;;10.98;8.73;;;;;;;14.46;82.11;100317.61;1711777;81;25858;-85
2022/10/01 10:11:04;;;;;;;10.45;8.93;;;;;;;14.55;82.11;100324.39;1707303;82;25794;-86
2022/10/01 10:13:37;;;;;;;12.68;9.43;;;;;;;14.63;81.81;100314.67;1729849;82;26371;-86
2022/10/01 10:16:29;;;;;;;9.43;7.45;;;;;;;14.69;81.61;100307.59;1728544;82;29789;-85
2022/10/01 10:18:59;;;;;;;10.98;9.18;;;;;;;14.76;81.40;100299.42;1733099;81;26157;-86
2022/10/01 10:21:29;;;;;;;9.75;7.22;;;;;;;14.81;80.61;100303.12;1733083;81;26390;-85
2022/10/01 10:24:03;;;;;;;11.48;8.65;;;;;;;14.79;80.33;100307.08;1720397;81;26494;-85
2022/10/01 10:26:39;;;;;;;13.10;8.98;;;;;;;14.76;80.29;100302.12;1729093;81;26312;-86
2022/10/01 10:29:10;;;;;;;14.45;10.40;;;;;;;14.79;80.85;100295.78;1717815;82;27468;-85
2022/10/01 10:31:44;;;;;;;10.88;8.68;;;;;;;14.80;80.49;100284.48;1723653;81;26426;-84
2022/10/01 10:34:21;;;;;;;10.53;8.30;;;;;;;14.75;80.41;100276.22;1728213;81;25876;-85
2022/10/01 10:36:48;;;;;;;11.33;7.83;;;;;;;14.79;80.34;100275.55;1731064;81;25861;-86
2022/10/01 10:39:32;;;;;;;8.25;6.75;;;;;;;14.87;80.26;100263.13;1745549;81;25344;-85
2022/10/01 10:42:01;;;;;;;8.78;7.22;;;;;;;14.94;80.02;100266.59;1726816;82;27489;-86
2022/10/01 10:44:38;;;;;;;10.40;7.53;;;;;;;15.04;79.93;100263.36;1723571;82;25784;-85
2022/10/01 10:47:10;;;;;;;11.97;8.03;;;;;;;15.09;79.84;100251.39;1719047;81;26453;-86
2022/10/01 10:49:56;;;;;;;9.68;8.25;;;;;;;15.12;79.23;100253.66;1704468;82;26230;-85
2022/10/01 10:52:35;;;;;;;8.03;6.75;;;;;;;15.15;79.25;100258.58;1685541;82;25841;-86
2022/10/01 10:55:29;;;;;;;8.35;5.87;;;;;;;15.23;79.59;100253.70;1699291;82;27541;-86
2022/10/01 10:58:15;;;;;;;6.90;6.12;;;;;;;15.26;78.87;100251.09;1692782;82;25895;-85
2022/10/01 11:00:49;;;;;;;7.83;6.47;;;;;;;15.29;78.83;100243.91;1709242;83;25801;-85
2022/10/01 11:03:23;;;;;;;10.30;7.17;;;;;;;15.32;78.20;100239.39;1692256;82;26119;-85
2022/10/01 11:05:50;;;;;;;6.85;5.80;;;;;;;15.29;77.96;100236.61;1672797;85;25942;-86
2022/10/01 11:08:26;;;;;;;8.28;6.10;;;;;;;15.27;77.97;100235.19;1692896;82;27652;-86
2022/10/01 11:11:08;;;;;;;6.70;6.00;;;;;;;15.27;77.80;100227.92;1682989;82;25797;-85
2022/10/01 11:13:51;;;;;;;9.35;5.95;;;;;;;15.30;77.81;100217.20;1732796;82;26290;-86
2022/10/01 11:16:45;;;;;;;8.08;6.60;;;;;;;15.33;77.25;100206.77;1697847;82;25845;-87
2022/10/01 11:19:46;;;;;;;9.68;6.85;;;;;;;15.36;77.09;100202.28;1661644;83;25355;-86
2022/10/01 11:23:06;;;;;;;7.25;6.55;;;;;;;15.41;77.65;100201.09;1687892;82;27539;-82
2022/10/01 11:26:02;;;;;;;6.60;5.55;;;;;;;15.52;77.68;100200.88;1696258;82;26262;-82
2022/10/01 11:29:10;;;;;;;5.72;5.12;;;;;;;15.60;78.15;100188.39;1697213;80;25788;-81
2022/10/01 11:31:55;;;;;;;6.67;5.45;;;;;;;15.70;76.95;100185.13;1690783;77;26844;-82
2022/10/01 11:34:50;;;;;;;6.10;5.05;;;;;;;15.71;76.42;100177.34;1701575;82;25360;-82
2022/10/01 11:37:46;;;;;;;6.55;5.33;;;;;;;15.76;76.20;100170.73;1705905;82;27461;-91
2022/10/01 11:40:27;;;;;;;8.05;5.30;;;;;;;15.78;76.03;100166.72;1674944;84;25802;-86